createdAt,value
2023-10-02T00:02:39.591Z,6.60
2023-10-02T00:05:10.218Z,7.30
2023-10-02T00:07:44.202Z,8.48
2023-10-02T00:10:17.088Z,8.93
2023-10-02T00:12:59.601Z,7.90
2023-10-02T00:15:28.888Z,7.03
2023-10-02T00:17:58.549Z,10.10
2023-10-02T00:20:28.440Z,6.82
2023-10-02T00:22:56.769Z,6.55
2023-10-02T00:25:29.532Z,6.20
2023-10-02T00:28:01.204Z,8.13
2023-10-02T00:30:38.367Z,6.30
2023-10-02T00:33:13.345Z,8.63
2023-10-02T00:35:52.107Z,7.22
2023-10-02T00:38:21.472Z,7.25
2023-10-02T00:40:49.670Z,7.45
2023-10-02T00:43:36.602Z,6.63
2023-10-02T00:46:05.380Z,7.13
2023-10-02T00:48:35.630Z,7.57
2023-10-02T00:51:08.825Z,7.30
2023-10-02T00:53:43.710Z,8.30
2023-10-02T00:56:23.060Z,8.20
2023-10-02T00:58:57.068Z,7.53
2023-10-02T01:01:26.223Z,7.03
2023-10-02T01:04:11.835Z,6.57
2023-10-02T01:07:05.675Z,8.15
2023-10-02T01:09:35.733Z,6.90
2023-10-02T01:12:03.900Z,6.63
2023-10-02T01:14:52.572Z,9.05
2023-10-02T01:17:23.190Z,7.28
2023-10-02T01:19:56.979Z,6.90
2023-10-02T01:22:28.474Z,8.45
2023-10-02T01:25:08.243Z,7.10
2023-10-02T01:27:43.073Z,9.70
2023-10-02T01:30:17.982Z,7.43
2023-10-02T01:33:08.831Z,7.85
2023-10-02T01:35:38.552Z,5.97
2023-10-02T01:38:14.626Z,6.13
2023-10-02T01:40:46.949Z,7.20
2023-10-02T01:43:17.001Z,6.53
2023-10-02T01:45:46.841Z,7.00
2023-10-02T01:48:39.146Z,8.60
2023-10-02T01:51:25.932Z,8.40
2023-10-02T01:53:56.844Z,8.88
2023-10-02T01:56:29.134Z,7.60
2023-10-02T01:59:09.912Z,7.25
2023-10-02T02:01:48.661Z,8.05
2023-10-02T02:04:16.840Z,7.80
2023-10-02T02:06:54.253Z,7.22
2023-10-02T02:09:25.264Z,6.80
2023-10-02T02:12:08.262Z,6.88
2023-10-02T02:14:42.382Z,8.27
2023-10-02T02:17:13.029Z,7.32
2023-10-02T02:19:49.667Z,8.95
2023-10-02T02:22:19.654Z,8.93
2023-10-02T02:24:48.934Z,7.70
2023-10-02T02:27:20.479Z,9.10
2023-10-02T02:29:49.676Z,7.80
2023-10-02T02:32:21.544Z,7.00
2023-10-02T02:34:50.543Z,8.38
2023-10-02T02:37:29.952Z,7.93
2023-10-02T02:40:20.165Z,8.65
2023-10-02T02:42:51.979Z,9.98
2023-10-02T02:45:31.278Z,7.88
2023-10-02T02:48:05.328Z,6.28
2023-10-02T02:50:36.336Z,8.85
2023-10-02T02:53:25.567Z,7.32
2023-10-02T02:56:17.148Z,8.40
2023-10-02T02:58:50.027Z,7.82
2023-10-02T03:01:23.358Z,7.15
2023-10-02T03:03:51.891Z,7.97
2023-10-02T03:06:23.926Z,7.93
2023-10-02T03:08:52.885Z,9.18
2023-10-02T03:11:24.122Z,8.77
2023-10-02T03:14:13.352Z,8.65
2023-10-02T03:16:46.737Z,8.77
2023-10-02T03:19:17.659Z,7.22
2023-10-02T03:21:49.569Z,7.82
2023-10-02T03:24:20.833Z,6.75
2023-10-02T03:26:54.373Z,7.10
2023-10-02T03:29:24.849Z,7.00
2023-10-02T03:31:53.968Z,8.05
2023-10-02T03:34:29.800Z,7.70
2023-10-02T03:37:01.702Z,8.93
2023-10-02T03:39:51.778Z,8.23
2023-10-02T03:42:24.209Z,8.68
2023-10-02T03:44:58.266Z,9.20
2023-10-02T03:47:27.583Z,7.55
2023-10-02T03:50:03.063Z,8.25
2023-10-02T03:52:35.082Z,6.70
2023-10-02T03:55:16.351Z,8.15
2023-10-02T03:57:52.282Z,9.23
2023-10-02T04:00:24.461Z,7.65
2023-10-02T04:02:54.488Z,7.13
2023-10-02T04:05:34.670Z,8.23
2023-10-02T04:08:24.244Z,7.65
2023-10-02T04:10:58.597Z,8.18
2023-10-02T04:13:33.682Z,9.57
2023-10-02T04:16:23.103Z,7.80
2023-10-02T04:19:00.280Z,8.75
2023-10-02T04:21:29.688Z,7.13
2023-10-02T04:24:00.546Z,8.85
2023-10-02T04:26:31.061Z,8.23
2023-10-02T04:29:11.769Z,10.15
2023-10-02T04:31:44.575Z,8.98
2023-10-02T04:34:25.967Z,11.23
2023-10-02T04:36:53.911Z,11.82
2023-10-02T04:39:40.068Z,7.97
2023-10-02T04:42:16.537Z,12.82
2023-10-02T04:44:48.359Z,11.40
2023-10-02T04:47:22.351Z,10.52
2023-10-02T04:50:12.375Z,8.90
2023-10-02T04:53:05.577Z,9.25
2023-10-02T04:55:44.136Z,7.50
2023-10-02T04:58:16.047Z,10.20
2023-10-02T05:01:07.572Z,7.95
2023-10-02T05:03:38.391Z,10.27
2023-10-02T05:06:08.383Z,9.23
2023-10-02T05:08:42.034Z,8.40
2023-10-02T05:11:25.147Z,8.35
2023-10-02T05:14:00.959Z,9.25
2023-10-02T05:16:35.092Z,8.18
2023-10-02T05:19:08.097Z,16.75
2023-10-02T05:21:40.491Z,9.60
2023-10-02T05:24:13.862Z,8.75
2023-10-02T05:26:43.567Z,9.13
2023-10-02T05:29:18.694Z,8.93
2023-10-02T05:31:48.770Z,9.65
2023-10-02T05:34:24.040Z,8.10
2023-10-02T05:37:13.156Z,7.97
2023-10-02T05:39:43.065Z,8.77
2023-10-02T05:42:15.900Z,7.30
2023-10-02T05:44:46.153Z,9.27
2023-10-02T05:47:18.262Z,9.23
2023-10-02T05:49:50.188Z,9.00
2023-10-02T05:52:21.209Z,8.18
2023-10-02T05:54:54.926Z,7.35
2023-10-02T05:57:30.068Z,7.45
2023-10-02T05:59:59.516Z,7.07
2023-10-02T06:02:29.471Z,6.30
2023-10-02T06:05:09.250Z,7.47
2023-10-02T06:07:46.198Z,7.60
2023-10-02T06:10:26.544Z,10.18
2023-10-02T06:13:05.313Z,12.40
2023-10-02T06:15:48.263Z,8.77
2023-10-02T06:18:26.985Z,8.60
2023-10-02T06:21:03.397Z,7.95
2023-10-02T06:23:39.433Z,7.78
2023-10-02T06:26:10.835Z,7.03
2023-10-02T06:28:40.932Z,12.93
2023-10-02T06:31:09.475Z,9.32
2023-10-02T06:33:38.855Z,7.80
2023-10-02T06:36:10.083Z,7.40
2023-10-02T06:38:39.351Z,8.40
2023-10-02T06:41:14.253Z,8.50
2023-10-02T06:43:43.460Z,9.82
2023-10-02T06:46:14.949Z,9.45
2023-10-02T06:48:45.262Z,6.95
2023-10-02T06:51:15.582Z,8.05
2023-10-02T06:53:44.325Z,9.07
2023-10-02T06:56:14.111Z,11.05
2023-10-02T06:58:54.048Z,11.68
2023-10-02T07:01:28.943Z,7.90
2023-10-02T07:03:58.329Z,9.80
2023-10-02T07:06:30.454Z,8.43
2023-10-02T07:09:14.536Z,10.57
2023-10-02T07:11:44.920Z,10.38
2023-10-02T07:14:13.504Z,8.18
2023-10-02T07:16:44.483Z,9.30
2023-10-02T07:19:13.202Z,9.43
2023-10-02T07:21:43.264Z,8.15
2023-10-02T07:24:29.434Z,7.88
2023-10-02T07:26:58.363Z,7.97
2023-10-02T07:29:39.040Z,8.88
2023-10-02T07:32:09.630Z,9.02
2023-10-02T07:34:40.002Z,8.80
2023-10-02T07:37:09.702Z,9.45
2023-10-02T07:39:38.412Z,9.77
2023-10-02T07:42:10.595Z,10.50
2023-10-02T07:44:40.767Z,9.00
2023-10-02T07:47:13.012Z,10.80
2023-10-02T07:49:42.366Z,9.05
2023-10-02T07:52:13.214Z,9.85
2023-10-02T07:54:47.205Z,12.60
2023-10-02T07:57:15.952Z,10.65
2023-10-02T07:59:45.144Z,9.68
2023-10-02T08:02:24.970Z,13.10
2023-10-02T08:04:54.600Z,10.75
2023-10-02T08:07:40.646Z,10.05
2023-10-02T08:10:14.899Z,10.93
2023-10-02T08:12:57.426Z,9.60
2023-10-02T08:15:29.308Z,9.15
2023-10-02T08:18:16.133Z,11.15
2023-10-02T08:20:46.496Z,13.15
2023-10-02T08:23:24.961Z,9.60
2023-10-02T08:26:25.330Z,9.88
2023-10-02T08:28:55.985Z,10.27
2023-10-02T08:31:29.285Z,8.68
2023-10-02T08:34:11.560Z,10.65
2023-10-02T08:36:43.628Z,9.43
2023-10-02T08:41:47.807Z,8.95
2023-10-02T08:44:17.171Z,11.10
2023-10-02T08:46:45.852Z,10.88
2023-10-02T08:49:15.203Z,10.55
2023-10-02T08:51:50.791Z,9.00
2023-10-02T08:54:21.490Z,9.93
2023-10-02T08:57:07.893Z,10.25
2023-10-02T08:59:42.488Z,9.85
2023-10-02T09:02:15.552Z,9.98
2023-10-02T09:04:53.765Z,9.93
2023-10-02T09:07:25.551Z,9.43
2023-10-02T09:10:14.350Z,9.20
2023-10-02T09:12:50.440Z,9.38
2023-10-02T09:15:32.908Z,9.65
2023-10-02T09:18:18.916Z,10.35
2023-10-02T09:20:56.011Z,11.60
2023-10-02T09:23:29.171Z,10.07
2023-10-02T09:26:19.399Z,11.82
2023-10-02T09:29:01.112Z,11.88
2023-10-02T09:31:32.365Z,10.95
2023-10-02T09:34:25.579Z,10.77
2023-10-02T09:38:02.946Z,10.55
2023-10-02T09:40:04.406Z,10.20
2023-10-02T09:42:37.767Z,9.48
2023-10-02T09:45:11.067Z,10.27
2023-10-02T09:47:55.421Z,9.18
2023-10-02T09:50:31.852Z,9.20
2023-10-02T09:53:07.081Z,9.90
2023-10-02T09:56:04.933Z,10.73
2023-10-02T09:58:39.104Z,9.70
2023-10-02T10:01:38.032Z,11.07
2023-10-02T10:04:26.741Z,11.07
2023-10-02T10:07:12.030Z,10.93
2023-10-02T10:09:52.009Z,9.57
2023-10-02T10:12:33.818Z,11.52
2023-10-02T10:15:26.530Z,8.82
2023-10-02T10:17:58.334Z,11.68
2023-10-02T10:20:29.623Z,10.02
2023-10-02T10:22:58.495Z,10.60
2023-10-02T10:25:50.654Z,10.40
2023-10-02T10:28:29.075Z,10.32
2023-10-02T10:31:03.194Z,9.68
2023-10-02T10:33:42.096Z,9.73
2023-10-02T10:36:43.184Z,11.02
2023-10-02T10:40:19.211Z,10.75
2023-10-02T10:43:01.323Z,10.68
2023-10-02T10:45:35.200Z,13.70
2023-10-02T10:48:05.162Z,11.77
2023-10-02T10:50:34.405Z,11.68
2023-10-02T10:53:23.520Z,11.57
2023-10-02T10:55:56.853Z,11.50
2023-10-02T10:58:33.264Z,9.30
2023-10-02T11:01:03.572Z,9.75
2023-10-02T11:03:34.300Z,12.70
2023-10-02T11:06:04.849Z,11.57
2023-10-02T11:08:38.678Z,10.68
2023-10-02T11:11:19.884Z,10.55
2023-10-02T11:13:59.756Z,11.73
2023-10-02T11:16:39.210Z,10.35
2023-10-02T11:19:36.359Z,10.45
2023-10-02T11:22:19.901Z,15.15
2023-10-02T11:25:19.497Z,11.95
2023-10-02T11:27:58.572Z,9.48
2023-10-02T11:30:33.759Z,10.23
2023-10-02T11:33:06.274Z,9.68
2023-10-02T11:35:41.946Z,11.30
2023-10-02T11:38:11.123Z,10.85
2023-10-02T11:40:40.308Z,10.23
2023-10-02T11:43:09.063Z,12.60
2023-10-02T11:45:37.931Z,10.80
2023-10-02T11:48:12.082Z,11.68
2023-10-02T11:50:43.847Z,11.10
2023-10-02T11:53:13.720Z,11.75
2023-10-02T11:55:41.911Z,11.95
2023-10-02T11:58:11.404Z,13.68
2023-10-02T12:00:39.514Z,14.05
2023-10-02T12:03:11.106Z,11.20
2023-10-02T12:05:39.371Z,11.10
2023-10-02T12:08:09.821Z,12.48
2023-10-02T12:10:40.348Z,10.10
2023-10-02T12:13:10.662Z,12.82
2023-10-02T12:15:39.317Z,10.80
2023-10-02T12:18:08.674Z,11.00
2023-10-02T12:20:41.425Z,12.13
2023-10-02T12:23:12.124Z,12.07
2023-10-02T12:25:40.734Z,10.75
2023-10-02T12:28:10.893Z,10.80
2023-10-02T12:30:39.273Z,10.63
2023-10-02T12:33:08.064Z,12.38
2023-10-02T12:35:38.080Z,12.65
2023-10-02T12:38:08.857Z,11.23
2023-10-02T12:40:38.509Z,10.80
2023-10-02T12:43:07.229Z,13.23
2023-10-02T12:45:37.612Z,12.48
2023-10-02T12:48:09.014Z,11.45
2023-10-02T12:50:41.093Z,11.38
2023-10-02T12:53:10.400Z,10.25
2023-10-02T12:55:44.086Z,10.88
2023-10-02T12:58:12.709Z,10.68
2023-10-02T13:00:41.628Z,12.52
2023-10-02T13:03:11.418Z,11.80
2023-10-02T13:05:40.199Z,11.88
2023-10-02T13:08:08.466Z,11.35
2023-10-02T13:10:37.159Z,13.02
2023-10-02T13:13:07.474Z,13.98
2023-10-02T13:15:37.717Z,14.30
2023-10-02T13:18:07.576Z,13.68
2023-10-02T13:20:37.728Z,13.15
2023-10-02T13:23:06.816Z,18.13
2023-10-02T13:25:35.980Z,16.25
2023-10-02T13:28:05.143Z,15.48
2023-10-02T13:30:35.496Z,15.80
2023-10-02T13:33:04.189Z,16.95
2023-10-02T13:35:34.507Z,17.05
2023-10-02T13:38:03.584Z,20.80
2023-10-02T13:40:33.600Z,20.55
2023-10-02T13:43:01.728Z,20.65
2023-10-02T13:45:31.165Z,20.30
2023-10-02T13:48:00.704Z,20.30
2023-10-02T13:50:30.677Z,20.77
2023-10-02T13:53:00.352Z,24.48
2023-10-02T13:55:29.268Z,26.58
2023-10-02T13:57:58.380Z,26.38
2023-10-02T14:00:28.350Z,24.17
2023-10-02T14:02:57.121Z,24.95
2023-10-02T14:05:30.791Z,25.40
2023-10-02T14:08:00.554Z,28.13
2023-10-02T14:10:30.766Z,28.48
2023-10-02T14:12:59.511Z,25.80
2023-10-02T14:15:28.546Z,29.67
2023-10-02T14:17:57.482Z,37.40
2023-10-02T14:20:28.215Z,35.97
2023-10-02T14:22:57.325Z,42.38
2023-10-02T14:25:25.844Z,33.88
2023-10-02T14:27:54.913Z,35.88
2023-10-02T14:30:24.165Z,29.20
2023-10-02T14:32:54.348Z,30.05
2023-10-02T14:35:25.187Z,30.88
2023-10-02T14:37:56.855Z,31.25
2023-10-02T14:40:31.393Z,30.52
2023-10-02T14:43:04.731Z,28.25
2023-10-02T14:45:35.741Z,28.73
2023-10-02T14:48:07.026Z,31.23
2023-10-02T14:50:37.008Z,30.30
2023-10-02T14:53:10.857Z,31.67
2023-10-02T14:55:40.219Z,31.45
2023-10-02T14:58:08.992Z,29.33
2023-10-02T15:00:37.788Z,30.63
2023-10-02T15:03:07.135Z,31.73
2023-10-02T15:05:38.599Z,29.83
2023-10-02T15:08:14.367Z,29.13
2023-10-02T15:10:45.512Z,27.63
2023-10-02T15:13:15.064Z,28.23
2023-10-02T15:15:43.194Z,28.13
2023-10-02T15:18:15.568Z,29.83
2023-10-02T15:20:45.256Z,30.10
2023-10-02T15:23:15.452Z,30.38
2023-10-02T15:25:44.574Z,34.22
2023-10-02T15:28:13.266Z,32.72
2023-10-02T15:30:41.990Z,35.33
2023-10-02T15:33:11.132Z,32.97
2023-10-02T15:35:39.280Z,32.30
2023-10-02T15:38:07.998Z,32.15
2023-10-02T15:40:41.006Z,33.25
2023-10-02T15:43:10.192Z,30.55
2023-10-02T15:45:38.863Z,34.53
2023-10-02T15:48:07.354Z,34.13
2023-10-02T15:50:35.802Z,29.70
2023-10-02T15:53:04.039Z,30.90
2023-10-02T15:55:32.202Z,33.63
2023-10-02T15:58:02.714Z,30.70
2023-10-02T16:00:31.693Z,32.13
2023-10-02T16:03:02.292Z,32.08
2023-10-02T16:05:32.723Z,34.92
2023-10-02T16:08:01.501Z,31.73
2023-10-02T16:10:30.467Z,30.85
2023-10-02T16:12:59.250Z,33.25
2023-10-02T16:15:30.190Z,26.92
2023-10-02T16:18:00.391Z,32.72
2023-10-02T16:20:31.363Z,29.75
2023-10-02T16:23:00.466Z,29.15
2023-10-02T16:25:30.709Z,28.63
2023-10-02T16:27:59.974Z,28.42
2023-10-02T16:30:30.094Z,26.65
2023-10-02T16:32:59.590Z,25.92
2023-10-02T16:35:31.433Z,26.02
2023-10-02T16:38:03.730Z,23.58
2023-10-02T16:40:35.037Z,25.40
2023-10-02T16:43:05.966Z,25.83
2023-10-02T16:45:36.584Z,24.35
2023-10-02T16:48:07.234Z,23.20
2023-10-02T16:50:37.168Z,20.38
2023-10-02T16:53:06.043Z,19.48
2023-10-02T16:55:34.167Z,21.83
2023-10-02T16:58:04.306Z,24.10
2023-10-02T17:00:32.897Z,20.77
2023-10-02T17:03:04.894Z,20.25
2023-10-02T17:05:33.610Z,20.88
2023-10-02T17:08:02.325Z,20.88
2023-10-02T17:10:30.430Z,17.73
2023-10-02T17:13:01.040Z,17.75
2023-10-02T17:15:31.797Z,19.52
2023-10-02T17:18:00.172Z,19.67
2023-10-02T17:20:30.428Z,20.90
2023-10-02T17:23:00.136Z,18.77
2023-10-02T17:25:29.769Z,16.85
2023-10-02T17:28:01.950Z,19.27
2023-10-02T17:30:32.762Z,19.00
2023-10-02T17:33:03.679Z,18.15
2023-10-02T17:35:35.731Z,19.15
2023-10-02T17:38:04.815Z,19.70
2023-10-02T17:40:32.959Z,19.80
2023-10-02T17:43:01.219Z,18.65
2023-10-02T17:45:29.810Z,20.35
2023-10-02T17:47:58.056Z,15.75
2023-10-02T17:50:26.875Z,18.27
2023-10-02T17:52:56.830Z,17.67
2023-10-02T17:55:25.608Z,17.90
2023-10-02T17:57:56.194Z,21.58
2023-10-02T18:00:26.016Z,18.20
2023-10-02T18:02:56.315Z,19.27
2023-10-02T18:05:26.158Z,17.40
2023-10-02T18:07:54.293Z,23.42
2023-10-02T18:10:24.692Z,20.05
2023-10-02T18:12:53.293Z,17.52
2023-10-02T18:15:22.376Z,20.13
2023-10-02T18:17:51.477Z,20.42
2023-10-02T18:20:20.737Z,20.52
2023-10-02T18:22:50.555Z,18.65
2023-10-02T18:25:20.582Z,18.50
2023-10-02T18:27:50.286Z,18.42
2023-10-02T18:30:18.692Z,20.67
2023-10-02T18:32:47.138Z,21.08
2023-10-02T18:35:15.478Z,19.23
2023-10-02T18:37:44.139Z,18.63
2023-10-02T18:40:15.089Z,21.00
2023-10-02T18:42:44.048Z,19.35
2023-10-02T18:45:13.830Z,19.13
2023-10-02T18:47:42.878Z,20.13
2023-10-02T18:50:13.742Z,19.92
2023-10-02T18:52:42.887Z,19.48
2023-10-02T18:55:12.571Z,21.30
2023-10-02T19:01:29.780Z,20.98
2023-10-02T19:03:59.169Z,17.83
2023-10-02T19:06:27.395Z,19.52
2023-10-02T19:08:56.209Z,20.80
2023-10-02T19:11:26.001Z,19.80
2023-10-02T19:13:57.118Z,18.75
2023-10-02T19:16:25.907Z,18.27
2023-10-02T19:18:57.292Z,21.45
2023-10-02T19:21:29.379Z,19.65
2023-10-02T19:23:58.089Z,23.25
2023-10-02T19:26:32.214Z,19.25
2023-10-02T19:29:02.989Z,16.77
2023-10-02T19:31:32.209Z,18.58
2023-10-02T19:34:02.344Z,19.45
2023-10-02T19:36:30.558Z,19.52
2023-10-02T19:38:59.724Z,18.33
2023-10-02T19:41:30.052Z,20.23
2023-10-02T19:43:59.447Z,20.67
2023-10-02T19:46:28.406Z,20.67
2023-10-02T19:48:57.061Z,19.05
2023-10-02T19:51:27.084Z,19.08
2023-10-02T19:53:56.489Z,17.75
2023-10-02T19:56:26.318Z,19.92
2023-10-02T19:58:54.487Z,18.80
2023-10-02T20:01:22.705Z,17.75
2023-10-02T20:03:51.928Z,17.75
2023-10-02T20:06:21.929Z,20.40
2023-10-02T20:08:52.025Z,18.55
2023-10-02T20:11:22.573Z,17.90
2023-10-02T20:13:51.256Z,16.80
2023-10-02T20:16:20.121Z,17.75
2023-10-02T20:18:49.356Z,19.05
2023-10-02T20:21:20.051Z,15.95
2023-10-02T20:23:52.889Z,24.00
2023-10-02T20:26:23.890Z,19.33
2023-10-02T20:28:52.279Z,20.92
2023-10-02T20:31:20.498Z,16.30
2023-10-02T20:33:49.303Z,16.70
2023-10-02T20:36:18.354Z,16.30
2023-10-02T20:38:47.048Z,17.20
2023-10-02T20:41:15.283Z,20.33
2023-10-02T20:43:44.840Z,20.92
2023-10-02T20:46:16.410Z,18.52
2023-10-02T20:48:45.101Z,18.58
2023-10-02T20:51:15.864Z,16.67
2023-10-02T20:53:44.973Z,15.70
2023-10-02T20:56:13.775Z,16.60
2023-10-02T20:58:41.956Z,18.55
2023-10-02T21:01:14.720Z,19.67
2023-10-02T21:03:43.912Z,19.88
2023-10-02T21:06:13.269Z,18.15
2023-10-02T21:08:42.040Z,20.40
2023-10-02T21:11:10.715Z,21.83
2023-10-02T21:13:38.846Z,22.42
2023-10-02T21:16:07.554Z,21.45
2023-10-02T21:18:37.129Z,20.42
2023-10-02T21:21:06.049Z,20.85
2023-10-02T21:23:34.180Z,19.27
2023-10-02T21:26:05.947Z,18.80
2023-10-02T21:28:34.185Z,18.30
2023-10-02T21:31:03.904Z,18.88
2023-10-02T21:33:32.562Z,18.33
2023-10-02T21:36:05.230Z,20.50
2023-10-02T21:38:34.393Z,18.48
2023-10-02T21:41:12.405Z,20.33
2023-10-02T21:43:41.990Z,19.48
2023-10-02T21:46:11.707Z,17.05
2023-10-02T21:48:41.544Z,16.42
2023-10-02T21:51:13.035Z,17.58
2023-10-02T21:53:41.784Z,17.75
2023-10-02T21:56:16.914Z,15.18
2023-10-02T21:58:47.553Z,17.33
2023-10-02T22:01:17.126Z,20.83
2023-10-02T22:03:45.924Z,21.00
2023-10-02T22:06:19.398Z,17.90
2023-10-02T22:08:49.650Z,27.48
2023-10-02T22:11:19.297Z,18.23
2023-10-02T22:13:47.439Z,17.42
2023-10-02T22:16:16.214Z,17.85
2023-10-02T22:18:45.912Z,18.58
2023-10-02T22:21:21.313Z,18.55
2023-10-02T22:23:51.111Z,20.17
2023-10-02T22:26:19.316Z,16.75
2023-10-02T22:28:49.175Z,19.63
2023-10-02T22:31:18.318Z,19.05
2023-10-02T22:33:48.871Z,19.50
2023-10-02T22:36:18.563Z,18.15
2023-10-02T22:38:47.561Z,21.33
2023-10-02T22:41:15.802Z,20.80
2023-10-02T22:43:44.007Z,17.67
2023-10-02T22:46:12.638Z,17.88
2023-10-02T22:48:41.490Z,17.55
2023-10-02T22:51:10.187Z,19.30
2023-10-02T22:53:40.219Z,18.85
2023-10-02T22:56:08.389Z,17.55
2023-10-02T22:58:37.704Z,18.98
2023-10-02T23:01:05.912Z,17.60
2023-10-02T23:03:36.767Z,21.73
2023-10-02T23:06:06.240Z,19.88
2023-10-02T23:08:35.063Z,17.98
2023-10-02T23:11:05.261Z,17.90
2023-10-02T23:13:34.663Z,21.23
2023-10-02T23:16:03.782Z,19.20
2023-10-02T23:18:36.426Z,18.27
2023-10-02T23:21:05.414Z,19.60
2023-10-02T23:23:34.086Z,18.67
2023-10-02T23:26:03.842Z,20.33
2023-10-02T23:28:33.406Z,18.67
2023-10-02T23:31:01.945Z,18.08
2023-10-02T23:33:30.618Z,20.30
2023-10-02T23:35:59.454Z,20.70
2023-10-02T23:38:28.970Z,22.50
2023-10-02T23:40:57.634Z,20.98
2023-10-02T23:43:25.830Z,20.33
2023-10-02T23:45:55.877Z,19.45
2023-10-02T23:48:24.360Z,17.50
2023-10-02T23:50:57.302Z,20.10
2023-10-02T23:53:26.810Z,21.10
2023-10-02T23:56:00.016Z,21.75
2023-10-02T23:58:29.079Z,17.15
